METAR
Diposting tanggal: 01 September 2019

Pukul : 05.30 UTC

Isi :

METAR WAGI 180530Z 32007KT 1600 RA FEW009CB BKN010 24/23 Q1010 RMK CB OVER THE FIELD=